createdAt,value
2022-08-07T00:02:37.414Z,100959.19
2022-08-07T00:04:16.872Z,100954.16
2022-08-07T00:06:52.831Z,100962.09
2022-08-07T00:09:26.635Z,100967.59
2022-08-07T00:12:01.787Z,100964.47
2022-08-07T00:14:31.737Z,100960.56
2022-08-07T00:17:02.396Z,100958.34
2022-08-07T00:19:59.736Z,100950.66
2022-08-07T00:22:24.657Z,100956.84
2022-08-07T00:25:06.931Z,100957.31
2022-08-07T00:27:52.627Z,100948.94
2022-08-07T00:30:27.025Z,100945.72
2022-08-07T00:32:58.173Z,100942.16
2022-08-07T00:35:29.869Z,100939.38
2022-08-07T00:37:59.087Z,100938.88
2022-08-07T00:40:36.978Z,100937.94
2022-08-07T00:44:00.786Z,100940.97
2022-08-07T00:45:59.509Z,100938.88
2022-08-07T00:48:32.090Z,100933.19
2022-08-07T00:51:02.972Z,100928.69
2022-08-07T00:53:44.158Z,100926.44
2022-08-07T00:56:18.847Z,100923.25
2022-08-07T00:58:49.596Z,100925.69
2022-08-07T01:01:21.150Z,100925.88
2022-08-07T01:03:56.412Z,100922.03
2022-08-07T01:06:31.011Z,100911.34
2022-08-07T01:09:02.824Z,100916.97
2022-08-07T01:12:27.671Z,100913.06
2022-08-07T01:14:28.583Z,100914.84
2022-08-07T01:16:59.131Z,100913.44
2022-08-07T01:19:32.230Z,100910.78
2022-08-07T01:22:08.814Z,100904.50
2022-08-07T01:24:42.909Z,100903.72
2022-08-07T01:27:19.427Z,100910.16
2022-08-07T01:29:50.574Z,100902.81
2022-08-07T01:32:22.413Z,100910.69
2022-08-07T01:34:55.617Z,100905.06
2022-08-07T01:37:28.032Z,100906.56
2022-08-07T01:40:02.249Z,100901.47
2022-08-07T01:42:39.442Z,100912.81
2022-08-07T01:45:26.688Z,100899.97
2022-08-07T01:48:18.320Z,100898.59
2022-08-07T01:50:58.252Z,100900.81
2022-08-07T01:54:09.170Z,100904.00
2022-08-07T01:56:29.037Z,100900.53
2022-08-07T01:59:09.178Z,100909.09
2022-08-07T02:02:04.209Z,100916.28
2022-08-07T02:04:56.223Z,100909.25
2022-08-07T02:07:50.373Z,100912.66
2022-08-07T02:10:28.859Z,100923.72
2022-08-07T02:13:04.250Z,100926.06
2022-08-07T02:15:44.752Z,100918.75
2022-08-07T02:18:14.916Z,100915.28
2022-08-07T02:20:51.981Z,100911.84
2022-08-07T02:23:27.979Z,100905.94
2022-08-07T02:26:30.953Z,100910.59
2022-08-07T02:28:50.456Z,100913.19
2022-08-07T02:31:28.710Z,100910.03
2022-08-07T02:34:03.862Z,100906.31
2022-08-07T02:36:36.164Z,100899.00
2022-08-07T02:39:17.185Z,100908.94
2022-08-07T02:42:03.037Z,100906.31
2022-08-07T02:44:45.817Z,100902.84
2022-08-07T02:47:45.393Z,100904.03
2022-08-07T02:50:14.569Z,100903.47
2022-08-07T02:52:47.812Z,100894.97
2022-08-07T02:55:28.790Z,100896.47
2022-08-07T02:58:22.309Z,100893.22
2022-08-07T03:01:00.494Z,100890.44
2022-08-07T03:03:49.239Z,100892.50
2022-08-07T03:06:32.092Z,100895.97
2022-08-07T03:09:04.674Z,100897.22
2022-08-07T03:11:38.920Z,100887.25
2022-08-07T03:14:12.162Z,100900.72
2022-08-07T03:16:42.692Z,100893.22
2022-08-07T03:19:11.881Z,100891.13
2022-08-07T03:21:50.533Z,100903.13
2022-08-07T03:24:25.818Z,100897.84
2022-08-07T03:26:59.630Z,100902.38
2022-08-07T03:29:44.669Z,100893.75
2022-08-07T03:32:29.540Z,100888.31
2022-08-07T03:35:17.762Z,100889.88
2022-08-07T03:38:01.711Z,100884.44
2022-08-07T03:40:36.686Z,100888.69
2022-08-07T03:43:14.781Z,100884.91
2022-08-07T03:45:53.961Z,100878.03
2022-08-07T03:48:26.829Z,100887.16
2022-08-07T03:50:59.885Z,100889.78
2022-08-07T03:54:05.933Z,100885.44
2022-08-07T03:56:32.812Z,100891.97
2022-08-07T03:59:08.545Z,100885.50
2022-08-07T04:01:45.531Z,100876.25
2022-08-07T04:04:18.447Z,100882.66
2022-08-07T04:06:52.142Z,100886.16
2022-08-07T04:09:38.016Z,100881.34
2022-08-07T04:12:24.812Z,100890.50
2022-08-07T04:15:00.383Z,100898.06
2022-08-07T04:18:58.005Z,100888.78
2022-08-07T04:20:23.421Z,100900.69
2022-08-07T04:23:01.785Z,100890.78
2022-08-07T04:25:39.087Z,100888.72
2022-08-07T04:28:13.319Z,100895.06
2022-08-07T04:30:55.259Z,100895.91
2022-08-07T04:33:31.776Z,100894.34
2022-08-07T04:36:06.380Z,100893.81
2022-08-07T04:38:37.273Z,100892.59
2022-08-07T04:41:06.692Z,100889.91
2022-08-07T04:44:10.711Z,100886.16
2022-08-07T04:46:59.633Z,100890.56
2022-08-07T04:49:57.477Z,100897.03
2022-08-07T04:52:37.922Z,100900.69
2022-08-07T04:58:24.121Z,100903.47
2022-08-07T04:58:47.469Z,100905.13
2022-08-07T05:01:22.834Z,100899.56
2022-08-07T05:04:17.780Z,100898.84
2022-08-07T05:06:57.681Z,100890.59
2022-08-07T05:09:45.633Z,100893.34
2022-08-07T05:12:31.124Z,100899.03
2022-08-07T05:15:23.464Z,100890.56
2022-08-07T05:18:09.044Z,100908.19
2022-08-07T05:20:43.459Z,100898.03
2022-08-07T05:23:23.171Z,100900.81
2022-08-07T05:26:13.890Z,100904.41
2022-08-07T05:28:53.014Z,100907.56
2022-08-07T05:31:35.202Z,100914.06
2022-08-07T05:34:12.565Z,100919.16
2022-08-07T05:36:49.038Z,100911.25
2022-08-07T05:40:05.842Z,100907.69
2022-08-07T05:42:34.640Z,100906.09
2022-08-07T05:45:14.870Z,100904.13
2022-08-07T05:48:03.099Z,100915.66
2022-08-07T05:50:43.317Z,100917.84
2022-08-07T05:54:09.428Z,100909.03
2022-08-07T05:56:09.473Z,100914.81
2022-08-07T05:58:52.735Z,100914.53
2022-08-07T06:01:26.044Z,100922.13
2022-08-07T06:04:01.107Z,100919.22
2022-08-07T06:06:38.283Z,100916.91
2022-08-07T06:09:18.261Z,100922.66
2022-08-07T06:11:51.257Z,100917.22
2022-08-07T06:14:28.526Z,100924.78
2022-08-07T06:17:02.429Z,100927.66
2022-08-07T06:19:47.938Z,100929.22
2022-08-07T06:22:36.907Z,100925.06
2022-08-07T06:25:21.355Z,100929.78
2022-08-07T06:28:01.467Z,100919.41
2022-08-07T06:30:37.223Z,100923.59
2022-08-07T06:33:16.121Z,100919.28
2022-08-07T06:36:12.061Z,100924.34
2022-08-07T06:38:39.174Z,100921.25
2022-08-07T06:41:47.648Z,100912.84
2022-08-07T06:44:17.817Z,100918.94
2022-08-07T06:46:53.596Z,100912.69
2022-08-07T06:49:50.931Z,100920.59
2022-08-07T06:52:31.597Z,100914.41
2022-08-07T06:55:33.377Z,100911.00
2022-08-07T06:58:05.261Z,100911.50
2022-08-07T07:00:53.075Z,100909.72
2022-08-07T07:03:39.504Z,100912.47
2022-08-07T07:06:11.206Z,100910.84
2022-08-07T07:08:46.605Z,100914.47
2022-08-07T07:12:07.403Z,100908.56
2022-08-07T07:14:08.429Z,100918.19
2022-08-07T07:16:50.529Z,100918.47
2022-08-07T07:19:57.204Z,100913.44
2022-08-07T07:22:36.908Z,100911.97
2022-08-07T07:26:31.670Z,100909.00
2022-08-07T07:28:03.083Z,100909.28
2022-08-07T07:30:39.717Z,100905.44
2022-08-07T07:33:13.509Z,100900.13
2022-08-07T07:36:03.742Z,100906.47
2022-08-07T07:38:35.984Z,100903.53
2022-08-07T07:41:09.292Z,100904.28
2022-08-07T07:44:14.881Z,100894.03
2022-08-07T07:46:37.406Z,100901.19
2022-08-07T07:50:35.167Z,100901.53
2022-08-07T07:52:16.913Z,100900.63
2022-08-07T07:54:50.671Z,100892.69
2022-08-07T07:57:43.708Z,100900.97
2022-08-07T08:00:29.028Z,100885.63
2022-08-07T08:03:08.439Z,100895.81
2022-08-07T08:05:54.131Z,100888.59
2022-08-07T08:08:35.584Z,100891.25
2022-08-07T08:11:16.206Z,100891.91
2022-08-07T08:13:53.890Z,100886.13
2022-08-07T08:16:31.117Z,100892.69
2022-08-07T08:19:09.905Z,100897.66
2022-08-07T08:22:11.922Z,100890.69
2022-08-07T08:25:18.907Z,100881.72
2022-08-07T08:27:56.205Z,100882.09
2022-08-07T08:30:29.174Z,100872.81
2022-08-07T08:33:03.027Z,100874.91
2022-08-07T08:35:42.909Z,100877.38
2022-08-07T08:38:20.800Z,100873.84
2022-08-07T08:40:57.266Z,100873.75
2022-08-07T08:43:42.696Z,100876.16
2022-08-07T08:46:38.441Z,100869.44
2022-08-07T08:49:32.895Z,100866.78
2022-08-07T08:52:13.677Z,100865.28
2022-08-07T08:54:54.995Z,100867.09
2022-08-07T08:57:34.592Z,100866.97
2022-08-07T09:00:08.310Z,100855.69
2022-08-07T09:02:49.473Z,100862.94
2022-08-07T09:05:38.496Z,100850.44
2022-08-07T09:08:31.162Z,100849.75
2022-08-07T09:11:24.837Z,100856.97
2022-08-07T09:14:29.564Z,100853.38
2022-08-07T09:17:11.886Z,100847.75
2022-08-07T09:19:59.099Z,100857.75
2022-08-07T09:24:38.846Z,100855.00
2022-08-07T09:25:54.872Z,100853.50
2022-08-07T09:30:01.863Z,100852.72
2022-08-07T09:31:39.029Z,100846.56
2022-08-07T09:34:26.171Z,100844.06
2022-08-07T09:37:04.794Z,100831.97
2022-08-07T09:39:55.289Z,100834.25
2022-08-07T09:42:48.010Z,100832.66
2022-08-07T09:47:50.786Z,100826.13
2022-08-07T09:48:30.878Z,100830.41
2022-08-07T09:52:16.021Z,100821.56
2022-08-07T09:54:33.208Z,100823.00
2022-08-07T09:57:36.559Z,100828.97
2022-08-07T10:00:14.401Z,100833.88
2022-08-07T10:04:06.579Z,100819.97
2022-08-07T10:07:39.926Z,100821.31
2022-08-07T10:10:22.907Z,100812.78
2022-08-07T10:13:29.881Z,100815.06
2022-08-07T10:16:23.040Z,100812.09
2022-08-07T10:19:23.785Z,100811.31
2022-08-07T10:22:16.157Z,100818.03
2022-08-07T10:25:03.706Z,100808.72
2022-08-07T10:27:56.079Z,100808.34
2022-08-07T10:30:37.459Z,100805.34
2022-08-07T10:34:14.227Z,100802.47
2022-08-07T10:36:46.362Z,100787.53
2022-08-07T10:39:41.195Z,100799.59
2022-08-07T10:42:31.176Z,100792.13
2022-08-07T10:45:19.383Z,100794.78
2022-08-07T10:48:34.890Z,100790.00
2022-08-07T10:51:16.284Z,100799.22
2022-08-07T10:54:02.715Z,100783.84
2022-08-07T10:56:47.600Z,100777.53
2022-08-07T10:59:37.278Z,100783.19
2022-08-07T11:02:33.627Z,100782.22
2022-08-07T11:05:35.801Z,100772.91
2022-08-07T11:08:41.505Z,100763.88
2022-08-07T11:11:20.184Z,100755.28
2022-08-07T11:14:43.662Z,100748.03
2022-08-07T11:17:01.275Z,100761.41
2022-08-07T11:19:43.454Z,100754.03
2022-08-07T11:22:36.996Z,100751.41
2022-08-07T11:25:21.202Z,100752.50
2022-08-07T11:28:05.298Z,100747.78
2022-08-07T11:30:46.513Z,100739.53
2022-08-07T11:33:58.482Z,100741.94
2022-08-07T11:36:31.372Z,100746.00
2022-08-07T11:39:14.497Z,100740.56
2022-08-07T11:42:07.187Z,100733.09
2022-08-07T11:45:00.055Z,100737.91
2022-08-07T11:47:55.973Z,100733.13
2022-08-07T11:50:57.463Z,100733.50
2022-08-07T11:54:01.737Z,100729.34
2022-08-07T11:56:53.236Z,100734.41
2022-08-07T12:00:12.269Z,100731.66
2022-08-07T12:03:41.983Z,100737.56
2022-08-07T12:06:37.102Z,100718.75
2022-08-07T12:09:16.672Z,100729.13
2022-08-07T12:12:10.882Z,100720.13
2022-08-07T12:14:55.620Z,100713.47
2022-08-07T12:17:59.280Z,100727.50
2022-08-07T12:20:36.910Z,100720.50
2022-08-07T12:24:05.757Z,100720.88
2022-08-07T12:26:29.936Z,100714.66
2022-08-07T12:29:12.265Z,100714.97
2022-08-07T12:32:03.867Z,100710.69
2022-08-07T12:34:37.012Z,100710.88
2022-08-07T12:37:16.875Z,100711.00
2022-08-07T12:39:57.520Z,100712.81
2022-08-07T12:42:32.209Z,100706.09
2022-08-07T12:45:08.518Z,100696.44
2022-08-07T12:47:49.214Z,100695.97
2022-08-07T12:50:38.930Z,100694.34
2022-08-07T12:53:19.472Z,100697.00
2022-08-07T12:56:04.181Z,100694.97
2022-08-07T12:58:42.902Z,100694.09
2022-08-07T13:01:32.333Z,100697.88
2022-08-07T13:04:34.253Z,100701.25
2022-08-07T13:08:14.512Z,100698.13
2022-08-07T13:10:52.899Z,100694.09
2022-08-07T13:13:53.748Z,100687.28
2022-08-07T13:16:32.697Z,100690.97
2022-08-07T13:19:34.997Z,100682.13
2022-08-07T13:22:19.977Z,100666.88
2022-08-07T13:25:02.775Z,100672.41
2022-08-07T13:28:12.985Z,100667.03
2022-08-07T13:30:39.877Z,100669.97
2022-08-07T13:34:32.092Z,100670.16
2022-08-07T13:36:20.200Z,100667.00
2022-08-07T13:39:02.648Z,100661.06
2022-08-07T13:41:47.460Z,100667.59
2022-08-07T13:44:25.985Z,100656.44
2022-08-07T13:47:00.111Z,100664.06
2022-08-07T13:50:34.238Z,100642.66
2022-08-07T13:52:32.436Z,100656.38
2022-08-07T13:55:19.093Z,100649.69
2022-08-07T13:58:01.937Z,100652.75
2022-08-07T14:00:54.334Z,100642.94
2022-08-07T14:03:29.218Z,100638.81
2022-08-07T14:06:17.513Z,100630.69
2022-08-07T14:08:53.483Z,100637.22
2022-08-07T14:11:24.281Z,100636.50
2022-08-07T14:14:04.668Z,100639.31
2022-08-07T14:16:41.317Z,100629.88
2022-08-07T14:20:39.320Z,100632.00
2022-08-07T14:22:15.691Z,100627.44
2022-08-07T14:25:08.213Z,100628.78
2022-08-07T14:28:10.465Z,100631.44
2022-08-07T14:30:40.570Z,100628.59
2022-08-07T14:33:14.914Z,100627.66
2022-08-07T14:35:47.495Z,100622.66
2022-08-07T14:38:30.855Z,100618.94
2022-08-07T14:41:04.064Z,100618.94
2022-08-07T14:43:57.949Z,100616.03
2022-08-07T14:46:32.471Z,100618.34
2022-08-07T14:49:17.418Z,100608.91
2022-08-07T14:52:05.006Z,100602.81
2022-08-07T14:54:43.161Z,100617.81
2022-08-07T14:57:19.154Z,100610.81
2022-08-07T15:00:06.810Z,100603.78
2022-08-07T15:02:37.328Z,100610.72
2022-08-07T15:08:12.579Z,100594.22
2022-08-07T15:10:59.138Z,100606.50
2022-08-07T15:13:37.063Z,100605.44
2022-08-07T15:16:14.623Z,100608.22
2022-08-07T15:18:51.555Z,100595.72
2022-08-07T15:25:12.690Z,100597.28
2022-08-07T15:27:15.951Z,100599.72
2022-08-07T15:33:01.429Z,100596.09
2022-08-07T15:36:01.718Z,100585.81
2022-08-07T15:38:30.694Z,100594.38
2022-08-07T15:44:04.198Z,100590.19
2022-08-07T15:46:51.844Z,100580.06
2022-08-07T15:50:05.449Z,100576.56
2022-08-07T15:52:21.586Z,100574.13
2022-08-07T15:55:02.794Z,100581.44
2022-08-07T15:57:47.540Z,100574.13
2022-08-07T16:00:32.214Z,100564.22
2022-08-07T16:03:06.157Z,100567.72
2022-08-07T16:05:40.383Z,100568.53
2022-08-07T16:08:32.439Z,100563.06
2022-08-07T16:11:26.545Z,100568.78
2022-08-07T16:14:10.508Z,100567.84
2022-08-07T16:17:03.108Z,100566.78
2022-08-07T16:20:04.226Z,100564.69
2022-08-07T16:23:09.833Z,100563.53
2022-08-07T16:26:00.646Z,100565.88
2022-08-07T16:30:06.346Z,100563.97
2022-08-07T16:32:00.735Z,100569.34
2022-08-07T16:34:49.511Z,100570.66
2022-08-07T16:38:04.139Z,100563.66
2022-08-07T16:41:22.222Z,100563.63
2022-08-07T16:45:15.428Z,100568.97
2022-08-07T16:48:28.743Z,100561.41
2022-08-07T16:51:57.611Z,100560.44
2022-08-07T16:54:33.061Z,100562.16
2022-08-07T16:58:02.868Z,100569.09
2022-08-07T17:00:34.556Z,100566.09
2022-08-07T17:03:57.680Z,100565.38
2022-08-07T17:06:45.885Z,100564.28
2022-08-07T17:10:07.007Z,100566.63
2022-08-07T17:12:35.088Z,100565.72
2022-08-07T17:15:20.206Z,100564.63
2022-08-07T17:18:04.113Z,100569.66
2022-08-07T17:20:37.788Z,100568.75
2022-08-07T17:23:18.213Z,100564.38
2022-08-07T17:26:02.906Z,100559.44
2022-08-07T17:28:49.757Z,100564.56
2022-08-07T17:31:25.549Z,100572.47
2022-08-07T17:34:34.578Z,100564.63
2022-08-07T17:38:05.442Z,100565.22
2022-08-07T17:40:07.931Z,100555.75
2022-08-07T17:42:58.555Z,100563.56
2022-08-07T17:45:35.561Z,100562.88
2022-08-07T17:48:12.810Z,100560.78
2022-08-07T17:51:01.784Z,100566.19
2022-08-07T17:54:00.967Z,100561.16
2022-08-07T17:56:35.649Z,100559.06
2022-08-07T17:59:25.098Z,100567.91
2022-08-07T18:02:05.154Z,100562.09
2022-08-07T18:04:43.884Z,100565.09
2022-08-07T18:07:33.980Z,100573.59
2022-08-07T18:10:32.755Z,100570.25
2022-08-07T18:13:16.518Z,100571.03
2022-08-07T18:16:03.187Z,100574.56
2022-08-07T18:21:01.579Z,100571.44
2022-08-07T18:21:55.093Z,100580.19
2022-08-07T18:24:37.728Z,100569.69
2022-08-07T18:27:38.349Z,100582.97
2022-08-07T18:30:31.818Z,100586.22
2022-08-07T18:34:39.360Z,100578.78
2022-08-07T18:38:53.672Z,100583.59
2022-08-07T18:40:42.874Z,100590.00
2022-08-07T18:43:36.941Z,100590.63
2022-08-07T18:46:27.005Z,100589.34
2022-08-07T18:50:31.520Z,100596.56
2022-08-07T18:52:35.247Z,100602.38
2022-08-07T18:55:42.501Z,100612.63
2022-08-07T18:58:57.843Z,100616.63
2022-08-07T19:02:32.432Z,100611.47
2022-08-07T19:04:58.047Z,100617.19
2022-08-07T19:07:51.707Z,100623.13
2022-08-07T19:10:49.874Z,100617.94
2022-08-07T19:13:27.783Z,100629.09
2022-08-07T19:16:43.701Z,100628.09
2022-08-07T19:19:01.219Z,100631.75
2022-08-07T19:21:44.936Z,100638.97
2022-08-07T19:24:30.462Z,100640.75
2022-08-07T19:29:00.179Z,100641.81
2022-08-07T19:30:56.401Z,100642.03
2022-08-07T19:32:59.295Z,100652.22
2022-08-07T19:35:33.256Z,100655.34
2022-08-07T19:38:17.054Z,100657.97
2022-08-07T19:40:50.395Z,100659.19
2022-08-07T19:43:45.541Z,100665.94
2022-08-07T19:46:19.114Z,100668.00
2022-08-07T19:48:56.133Z,100674.53
2022-08-07T19:51:52.680Z,100677.00
2022-08-07T19:54:32.983Z,100676.00
2022-08-07T19:58:03.260Z,100676.41
2022-08-07T20:00:10.226Z,100677.63
2022-08-07T20:02:52.248Z,100680.66
2022-08-07T20:05:28.766Z,100679.41
2022-08-07T20:08:03.071Z,100669.19
2022-08-07T20:10:52.017Z,100674.94
2022-08-07T20:13:34.037Z,100668.56
2022-08-07T20:16:06.687Z,100668.50
2022-08-07T20:18:47.534Z,100666.31
2022-08-07T20:21:21.746Z,100671.53
2022-08-07T20:24:00.200Z,100675.44
2022-08-07T20:26:44.761Z,100675.63
2022-08-07T20:29:47.693Z,100674.47
2022-08-07T20:32:22.319Z,100671.78
2022-08-07T20:34:58.618Z,100678.09
2022-08-07T20:37:34.025Z,100677.94
2022-08-07T20:40:32.407Z,100684.19
2022-08-07T20:42:57.907Z,100683.78
2022-08-07T20:45:33.106Z,100686.09
2022-08-07T20:48:30.249Z,100686.09
2022-08-07T20:51:01.678Z,100680.28
2022-08-07T20:54:03.851Z,100682.72
2022-08-07T20:56:27.693Z,100684.50
2022-08-07T20:59:02.508Z,100679.44
2022-08-07T21:01:45.361Z,100676.69
2022-08-07T21:04:22.422Z,100681.16
2022-08-07T21:06:56.806Z,100677.59
2022-08-07T21:09:52.785Z,100684.13
2022-08-07T21:12:30.686Z,100683.38
2022-08-07T21:15:05.388Z,100685.16
2022-08-07T21:18:05.819Z,100684.34
2022-08-07T21:20:33.533Z,100688.31
2022-08-07T21:23:11.505Z,100694.16
2022-08-07T21:26:01.382Z,100699.72
2022-08-07T21:28:50.380Z,100697.34
2022-08-07T21:32:42.539Z,100699.69
2022-08-07T21:34:31.643Z,100694.91
2022-08-07T21:37:09.679Z,100705.66
2022-08-07T21:39:51.379Z,100696.56
2022-08-07T21:42:42.605Z,100704.00
2022-08-07T21:46:08.532Z,100704.69
2022-08-07T21:48:33.650Z,100715.44
2022-08-07T21:51:20.463Z,100717.97
2022-08-07T21:54:09.190Z,100712.59
2022-08-07T21:56:49.151Z,100712.78
2022-08-07T22:00:02.754Z,100716.25
2022-08-07T22:02:30.815Z,100721.97
2022-08-07T22:05:03.917Z,100727.22
2022-08-07T22:07:58.040Z,100725.19
2022-08-07T22:10:35.440Z,100732.41
2022-08-07T22:13:09.319Z,100728.22
2022-08-07T22:16:40.234Z,100727.75
2022-08-07T22:18:45.592Z,100724.47
2022-08-07T22:21:20.476Z,100729.03
2022-08-07T22:23:58.320Z,100728.03
2022-08-07T22:26:44.282Z,100731.38
2022-08-07T22:29:37.995Z,100731.81
2022-08-07T22:32:21.628Z,100731.81
2022-08-07T22:34:56.057Z,100726.59
2022-08-07T22:38:04.665Z,100727.09
2022-08-07T22:40:45.773Z,100739.72
2022-08-07T22:43:23.475Z,100732.59
2022-08-07T22:47:02.061Z,100732.38
2022-08-07T22:49:54.196Z,100725.28
2022-08-07T22:53:26.830Z,100719.97
2022-08-07T22:56:17.477Z,100731.94
2022-08-07T22:59:21.957Z,100734.00
2022-08-07T23:02:08.354Z,100739.75
2022-08-07T23:06:06.968Z,100747.22
2022-08-07T23:08:04.837Z,100748.81
2022-08-07T23:11:12.836Z,100750.31
2022-08-07T23:14:14.973Z,100739.94
2022-08-07T23:17:05.367Z,100744.53
2022-08-07T23:20:09.277Z,100749.53
2022-08-07T23:22:54.029Z,100733.75
2022-08-07T23:25:36.440Z,100749.28
2022-08-07T23:28:44.327Z,100749.59
2022-08-07T23:32:49.273Z,100746.44
2022-08-07T23:34:57.253Z,100741.84
2022-08-07T23:38:01.341Z,100740.34
2022-08-07T23:40:39.637Z,100744.47
2022-08-07T23:43:46.123Z,100749.94
2022-08-07T23:47:11.629Z,100742.84
2022-08-07T23:50:17.013Z,100749.75
2022-08-07T23:53:06.749Z,100751.94
2022-08-07T23:55:52.894Z,100742.84
2022-08-07T23:58:34.998Z,100746.16
